createdAt,value
2023-04-22T00:05:08.528Z,6.60
2023-04-22T00:08:10.720Z,6.58
2023-04-22T00:11:16.828Z,6.56
2023-04-22T00:14:19.286Z,6.56
2023-04-22T00:30:53.802Z,6.51
2023-04-22T00:33:57.412Z,6.47
2023-04-22T00:37:01.078Z,6.47
2023-04-22T00:40:04.917Z,6.45
2023-04-22T00:43:09.606Z,6.46
2023-04-22T00:46:15.371Z,6.47
2023-04-22T00:49:20.411Z,6.49
2023-04-22T00:52:23.565Z,6.54
2023-04-22T00:55:27.717Z,6.58
2023-04-22T00:58:32.326Z,6.62
2023-04-22T01:01:36.674Z,6.64
2023-04-22T01:04:40.373Z,6.65
2023-04-22T01:07:43.669Z,6.65
2023-04-22T01:10:47.522Z,6.66
2023-04-22T01:13:52.004Z,6.70
2023-04-22T01:16:56.400Z,6.72
2023-04-22T01:20:00.170Z,6.72
2023-04-22T01:23:10.403Z,6.71
2023-04-22T01:26:13.771Z,6.69
2023-04-22T01:29:17.809Z,6.67
2023-04-22T01:32:21.345Z,6.66
2023-04-22T01:35:24.946Z,6.64
2023-04-22T01:38:29.751Z,6.61
2023-04-22T01:41:34.585Z,6.58
2023-04-22T01:44:37.885Z,6.56
2023-04-22T01:47:41.579Z,6.55
2023-04-22T01:50:45.877Z,6.53
2023-04-22T01:53:51.393Z,6.50
2023-04-22T01:56:56.223Z,6.46
2023-04-22T02:00:01.228Z,6.43
2023-04-22T02:04:50.760Z,6.37
2023-04-22T02:07:55.046Z,6.36
2023-04-22T02:11:00.681Z,6.34
2023-04-22T02:14:04.403Z,6.32
2023-04-22T02:17:08.096Z,6.33
2023-04-22T02:20:12.396Z,6.34
2023-04-22T02:23:16.858Z,6.35
2023-04-22T02:26:21.173Z,6.36
2023-04-22T02:29:26.313Z,6.35
2023-04-22T02:32:33.556Z,6.34
2023-04-22T02:35:37.105Z,6.33
2023-04-22T02:38:41.528Z,6.32
2023-04-22T02:41:44.644Z,6.32
2023-04-22T02:44:48.625Z,6.34
2023-04-22T02:47:52.039Z,6.35
2023-04-22T02:50:56.139Z,6.35
2023-04-22T02:54:00.560Z,6.35
2023-04-22T02:57:04.545Z,6.35
2023-04-22T03:00:11.105Z,6.35
2023-04-22T03:03:14.764Z,6.36
2023-04-22T03:06:18.679Z,6.37
2023-04-22T03:09:22.593Z,6.39
2023-04-22T03:12:25.996Z,6.39
2023-04-22T03:15:29.477Z,6.41
2023-04-22T03:18:32.877Z,6.42
2023-04-22T03:21:36.479Z,6.45
2023-04-22T03:24:39.948Z,6.49
2023-04-22T03:27:43.967Z,6.51
2023-04-22T03:30:47.709Z,6.54
2023-04-22T03:33:51.842Z,6.57
2023-04-22T03:37:02.787Z,6.60
2023-04-22T03:40:07.525Z,6.64
2023-04-22T03:43:12.364Z,6.66
2023-04-22T03:46:17.249Z,6.69
2023-04-22T03:49:26.825Z,6.74
2023-04-22T03:52:31.571Z,6.79
2023-04-22T03:55:35.597Z,6.82
2023-04-22T03:58:39.004Z,6.86
2023-04-22T04:05:10.926Z,6.90
2023-04-22T04:08:14.269Z,6.95
2023-04-22T04:11:17.782Z,6.99
2023-04-22T04:14:21.398Z,7.04
2023-04-22T04:17:26.090Z,7.10
2023-04-22T04:20:29.094Z,7.15
2023-04-22T04:23:31.783Z,7.20
2023-04-22T04:26:34.288Z,7.23
2023-04-22T04:29:44.107Z,7.24
2023-04-22T04:32:53.060Z,7.27
2023-04-22T04:35:55.513Z,7.30
2023-04-22T04:39:01.778Z,7.30
2023-04-22T04:42:05.186Z,7.31
2023-04-22T04:45:11.178Z,7.33
2023-04-22T04:48:14.333Z,7.35
2023-04-22T04:51:20.225Z,7.38
2023-04-22T04:54:31.173Z,7.45
2023-04-22T04:57:37.177Z,7.50
2023-04-22T05:00:40.730Z,7.58
2023-04-22T05:03:43.592Z,7.66
2023-04-22T05:06:49.064Z,7.73
2023-04-22T05:09:51.762Z,7.79
2023-04-22T05:12:54.293Z,7.88
2023-04-22T05:15:59.597Z,7.99
2023-04-22T05:19:01.954Z,8.08
2023-04-22T05:22:06.850Z,8.16
2023-04-22T05:25:10.704Z,8.22
2023-04-22T05:28:14.558Z,8.31
2023-04-22T05:31:22.130Z,8.40
2023-04-22T05:34:24.272Z,8.48
2023-04-22T05:37:28.803Z,8.59
2023-04-22T05:40:31.170Z,8.71
2023-04-22T05:43:34.264Z,8.83
2023-04-22T05:46:42.783Z,8.99
2023-04-22T05:49:44.850Z,9.17
2023-04-22T05:53:07.397Z,9.40
2023-04-22T05:56:09.265Z,9.59
2023-04-22T05:59:11.631Z,9.78
2023-04-22T06:05:10.109Z,10.02
2023-04-22T06:08:13.875Z,10.20
2023-04-22T06:11:15.834Z,10.35
2023-04-22T06:14:17.780Z,10.48
2023-04-22T06:17:19.964Z,10.61
2023-04-22T06:20:23.566Z,10.73
2023-04-22T06:23:25.733Z,10.84
2023-04-22T06:27:07.834Z,11.01
2023-04-22T06:30:11.667Z,11.13
2023-04-22T06:33:15.377Z,11.26
2023-04-22T06:36:18.266Z,11.41
2023-04-22T06:39:23.921Z,11.53
2023-04-22T06:42:57.697Z,11.66
2023-04-22T06:46:15.590Z,11.74
2023-04-22T06:49:26.769Z,11.83
2023-04-22T06:52:51.729Z,11.89
2023-04-22T06:55:54.425Z,12.00
2023-04-22T06:58:57.057Z,12.09
2023-04-22T07:02:00.773Z,12.17
2023-04-22T07:05:05.035Z,12.27
2023-04-22T07:08:09.670Z,12.32
2023-04-22T07:11:14.325Z,12.40
2023-04-22T07:14:45.038Z,12.54
2023-04-22T07:17:47.048Z,12.62
2023-04-22T07:20:49.280Z,12.67
2023-04-22T07:23:51.695Z,12.75
2023-04-22T07:26:53.885Z,12.84
2023-04-22T07:29:55.838Z,12.92
2023-04-22T07:32:57.876Z,13.07
2023-04-22T07:36:02.967Z,13.21
2023-04-22T07:39:05.758Z,13.34
2023-04-22T07:42:07.859Z,13.48
2023-04-22T07:45:10.758Z,13.64
2023-04-22T07:48:12.995Z,13.83
2023-04-22T07:51:15.112Z,13.94
2023-04-22T07:54:17.346Z,14.02
2023-04-22T07:57:22.142Z,14.06
2023-04-22T08:00:24.275Z,14.09
2023-04-22T08:03:26.846Z,14.19
2023-04-22T08:06:31.615Z,14.31
2023-04-22T08:09:33.540Z,14.45
2023-04-22T08:12:38.204Z,14.54
2023-04-22T08:15:40.358Z,14.66
2023-04-22T08:18:43.401Z,14.76
2023-04-22T08:21:46.177Z,14.79
2023-04-22T08:24:48.108Z,14.82
2023-04-22T08:27:51.172Z,14.95
2023-04-22T08:30:53.112Z,15.13
2023-04-22T08:33:55.279Z,15.28
2023-04-22T08:36:57.373Z,15.38
2023-04-22T08:40:01.284Z,15.41
2023-04-22T08:43:05.273Z,15.42
2023-04-22T08:46:11.110Z,15.35
2023-04-22T08:49:31.641Z,15.30
2023-04-22T08:52:34.225Z,15.34
2023-04-22T08:55:37.079Z,15.37
2023-04-22T08:58:42.913Z,15.44
2023-04-22T09:01:49.629Z,15.56
2023-04-22T09:04:56.019Z,15.66
2023-04-22T09:07:59.400Z,15.72
2023-04-22T09:11:03.211Z,15.85
2023-04-22T09:14:06.251Z,15.93
2023-04-22T09:17:10.321Z,15.91
2023-04-22T09:20:13.164Z,15.92
2023-04-22T09:23:15.673Z,15.99
2023-04-22T09:26:25.566Z,16.08
2023-04-22T09:29:31.389Z,16.27
2023-04-22T09:32:33.381Z,16.43
2023-04-22T09:35:39.362Z,16.53
2023-04-22T09:38:51.538Z,16.61
2023-04-22T09:41:55.969Z,16.62
2023-04-22T09:45:00.008Z,16.44
2023-04-22T09:48:08.396Z,16.24
2023-04-22T09:51:18.925Z,16.19
2023-04-22T09:54:23.207Z,16.25
2023-04-22T09:57:27.388Z,16.44
2023-04-22T10:00:30.706Z,16.64
2023-04-22T10:05:13.347Z,16.88
2023-04-22T10:08:18.173Z,17.21
2023-04-22T10:11:21.956Z,17.48
2023-04-22T10:14:25.020Z,17.59
2023-04-22T10:17:31.438Z,17.48
2023-04-22T10:20:40.753Z,17.33
2023-04-22T10:23:48.702Z,17.06
2023-04-22T10:27:13.872Z,16.89
2023-04-22T10:30:28.684Z,16.87
2023-04-22T10:33:40.824Z,16.77
2023-04-22T10:37:08.892Z,16.66
2023-04-22T10:40:18.667Z,16.68
2023-04-22T10:43:20.873Z,16.98
2023-04-22T10:46:39.336Z,17.43
2023-04-22T10:49:43.613Z,17.74
2023-04-22T10:52:57.912Z,17.85
2023-04-22T10:56:01.546Z,17.84
2023-04-22T10:59:16.415Z,17.84
2023-04-22T11:02:21.097Z,18.07
2023-04-22T11:05:26.484Z,18.41
2023-04-22T11:08:28.581Z,18.82
2023-04-22T11:11:30.553Z,19.27
2023-04-22T11:14:33.509Z,19.81
2023-04-22T11:17:37.572Z,20.15
2023-04-22T11:20:39.899Z,20.21
2023-04-22T11:23:52.427Z,20.32
2023-04-22T11:26:56.540Z,20.73
2023-04-22T11:30:08.857Z,20.72
2023-04-22T11:33:15.102Z,20.73
2023-04-22T11:36:19.147Z,20.70
2023-04-22T11:39:21.182Z,20.90
2023-04-22T11:42:23.451Z,21.41
2023-04-22T11:45:26.346Z,22.00
2023-04-22T11:48:28.522Z,22.29
2023-04-22T11:51:31.437Z,22.17
2023-04-22T11:54:37.362Z,22.07
2023-04-22T11:57:40.660Z,22.18
2023-04-22T12:00:50.027Z,22.43
2023-04-22T12:03:59.825Z,23.04
2023-04-22T12:07:03.465Z,23.82
2023-04-22T12:10:07.468Z,23.91
2023-04-22T12:13:10.551Z,23.44
2023-04-22T12:16:20.185Z,23.35
2023-04-22T12:28:54.435Z,23.64
2023-04-22T12:31:56.661Z,23.49
2023-04-22T12:34:58.652Z,23.46
2023-04-22T12:38:01.303Z,23.36
2023-04-22T12:41:03.868Z,22.91
2023-04-22T12:44:05.847Z,22.70
2023-04-22T12:47:09.404Z,22.71
2023-04-22T12:50:11.331Z,22.72
2023-04-22T12:53:14.702Z,22.75
2023-04-22T12:56:16.547Z,22.59
2023-04-22T12:59:18.961Z,22.41
2023-04-22T13:02:20.878Z,22.45
2023-04-22T13:05:22.774Z,22.66
2023-04-22T13:08:25.918Z,22.93
2023-04-22T13:11:29.328Z,22.82
2023-04-22T13:14:31.191Z,22.32
2023-04-22T13:17:34.457Z,22.31
2023-04-22T13:20:36.341Z,22.81
2023-04-22T13:23:39.408Z,23.47
2023-04-22T13:30:35.864Z,25.07
2023-04-22T13:33:38.849Z,25.65
2023-04-22T13:36:42.135Z,25.11
2023-04-22T13:39:46.680Z,23.89
2023-04-22T13:42:48.735Z,23.23
2023-04-22T13:45:50.920Z,23.43
2023-04-22T13:48:54.404Z,24.01
2023-04-22T13:51:56.889Z,24.55
2023-04-22T13:54:58.864Z,25.04
2023-04-22T13:58:01.053Z,25.80
2023-04-22T14:04:50.723Z,26.58
2023-04-22T14:07:54.860Z,27.07
2023-04-22T14:10:59.629Z,26.99
2023-04-22T14:14:03.100Z,26.15
2023-04-22T14:17:07.101Z,24.80
2023-04-22T14:20:11.320Z,23.65
2023-04-22T14:23:15.320Z,22.74
2023-04-22T14:26:18.534Z,22.18
2023-04-22T14:29:21.924Z,21.78
2023-04-22T14:32:25.975Z,21.47
2023-04-22T14:35:30.039Z,21.35
2023-04-22T14:38:33.751Z,21.27
2023-04-22T14:41:37.266Z,21.08
2023-04-22T14:44:40.752Z,21.16
2023-04-22T14:47:44.279Z,21.45
2023-04-22T14:50:47.959Z,21.44
2023-04-22T14:53:51.871Z,21.71
2023-04-22T14:56:56.250Z,22.40
2023-04-22T15:00:18.231Z,23.01
2023-04-22T15:03:21.761Z,23.24
2023-04-22T15:06:25.916Z,23.47
2023-04-22T15:09:30.175Z,23.68
2023-04-22T15:12:34.008Z,23.92
2023-04-22T15:15:38.846Z,23.95
2023-04-22T15:18:42.171Z,23.75
2023-04-22T15:21:46.982Z,22.97
2023-04-22T15:24:50.812Z,22.30
2023-04-22T15:33:54.428Z,21.84
2023-04-22T15:36:56.506Z,21.76
2023-04-22T15:39:58.957Z,21.19
2023-04-22T15:43:01.585Z,20.37
2023-04-22T15:46:03.701Z,19.60
2023-04-22T15:49:05.728Z,19.02
2023-04-22T15:52:09.727Z,18.55
2023-04-22T15:55:11.836Z,18.34
2023-04-22T15:58:13.908Z,18.68
2023-04-22T16:01:20.150Z,19.09
2023-04-22T16:04:25.075Z,19.11
2023-04-22T16:07:31.304Z,18.68
2023-04-22T16:10:34.676Z,18.16
2023-04-22T16:13:38.649Z,17.72
2023-04-22T16:16:42.570Z,17.41
2023-04-22T16:19:45.317Z,17.28
2023-04-22T16:22:47.390Z,17.26
2023-04-22T16:25:50.887Z,17.10
2023-04-22T16:28:54.565Z,16.95
2023-04-22T16:31:56.738Z,16.80
2023-04-22T16:34:59.412Z,16.75
2023-04-22T16:38:03.123Z,16.60
2023-04-22T16:41:05.327Z,16.36
2023-04-22T16:44:09.202Z,16.16
2023-04-22T16:47:11.786Z,15.99
2023-04-22T16:50:13.757Z,15.83
2023-04-22T16:53:15.946Z,15.71
2023-04-22T16:56:18.274Z,15.60
2023-04-22T16:59:20.362Z,15.47
2023-04-22T17:02:22.446Z,15.35
2023-04-22T17:05:25.092Z,15.23
2023-04-22T17:08:28.417Z,15.12
2023-04-22T17:11:32.370Z,14.99
2023-04-22T17:14:34.569Z,14.88
2023-04-22T17:17:36.432Z,14.78
2023-04-22T17:20:39.686Z,14.68
2023-04-22T17:23:45.640Z,14.58
2023-04-22T17:26:49.560Z,14.48
2023-04-22T17:29:51.800Z,14.39
2023-04-22T17:32:54.885Z,14.32
2023-04-22T17:35:57.062Z,14.25
2023-04-22T17:38:59.130Z,14.21
2023-04-22T17:42:02.223Z,14.20
2023-04-22T17:45:06.647Z,14.20
2023-04-22T17:48:09.247Z,14.21
2023-04-22T17:51:11.615Z,14.22
2023-04-22T17:54:17.027Z,14.23
2023-04-22T17:57:19.109Z,14.24
2023-04-22T18:00:24.084Z,14.24
2023-04-22T18:04:51.325Z,14.23
2023-04-22T18:08:01.884Z,14.23
2023-04-22T18:11:05.908Z,14.22
2023-04-22T18:14:09.251Z,14.21
2023-04-22T18:17:14.166Z,14.19
2023-04-22T18:20:20.187Z,14.18
2023-04-22T18:23:23.692Z,14.16
2023-04-22T18:26:26.932Z,14.14
2023-04-22T18:29:30.673Z,14.12
2023-04-22T18:32:33.926Z,14.10
2023-04-22T18:35:37.937Z,14.08
2023-04-22T18:38:43.604Z,14.03
2023-04-22T18:55:34.945Z,13.82
2023-04-22T18:58:38.529Z,13.77
2023-04-22T19:01:40.850Z,13.74
2023-04-22T19:18:49.975Z,13.54
2023-04-22T19:21:53.345Z,13.46
2023-04-22T19:24:57.225Z,13.41
2023-04-22T19:27:59.655Z,13.37
2023-04-22T19:31:06.979Z,13.32
2023-04-22T19:34:10.166Z,13.27
2023-04-22T19:37:18.272Z,13.22
2023-04-22T19:40:24.242Z,13.16
2023-04-22T19:43:26.805Z,13.15
2023-04-22T19:46:31.077Z,13.12
2023-04-22T19:49:35.655Z,13.10
2023-04-22T19:52:42.163Z,13.08
2023-04-22T19:55:46.138Z,13.06
2023-04-22T19:58:48.722Z,13.04
2023-04-22T20:01:51.141Z,13.03
2023-04-22T20:04:54.367Z,13.03
2023-04-22T20:08:00.949Z,13.01
2023-04-22T20:11:03.529Z,13.01
2023-04-22T20:14:08.666Z,13.01
2023-04-22T20:17:11.199Z,12.99
2023-04-22T20:20:15.153Z,12.98
2023-04-22T20:23:22.463Z,12.98
2023-04-22T20:26:24.657Z,12.98
2023-04-22T20:29:26.911Z,12.97
2023-04-22T20:32:29.239Z,12.95
2023-04-22T20:35:31.597Z,12.94
2023-04-22T20:38:37.085Z,12.92
2023-04-22T20:41:39.357Z,12.91
2023-04-22T20:44:41.868Z,12.90
2023-04-22T20:47:45.771Z,12.88
2023-04-22T20:50:47.748Z,12.87
2023-04-22T20:53:51.634Z,12.87
2023-04-22T20:56:53.436Z,12.86
2023-04-22T20:59:55.365Z,12.85
2023-04-22T21:02:59.108Z,12.85
2023-04-22T21:06:02.045Z,12.85
2023-04-22T21:09:08.080Z,12.85
2023-04-22T21:12:11.057Z,12.83
2023-04-22T21:15:14.102Z,12.81
2023-04-22T21:18:21.180Z,12.80
2023-04-22T21:21:30.105Z,12.77
2023-04-22T21:24:34.531Z,12.75
2023-04-22T21:27:37.004Z,12.73
2023-04-22T21:30:39.219Z,12.70
2023-04-22T21:33:42.268Z,12.69
2023-04-22T21:41:05.668Z,12.67
2023-04-22T21:44:07.835Z,12.59
2023-04-22T21:47:11.036Z,12.54
2023-04-22T21:50:13.167Z,12.51
2023-04-22T21:53:18.952Z,12.50
2023-04-22T21:56:21.534Z,12.47
2023-04-22T21:59:24.422Z,12.45
2023-04-22T22:04:52.862Z,12.39
2023-04-22T22:07:56.041Z,12.37
2023-04-22T22:10:59.751Z,12.34
2023-04-22T22:14:03.218Z,12.30
2023-04-22T22:17:09.812Z,12.27
2023-04-22T22:20:18.154Z,12.23
2023-04-22T22:23:21.813Z,12.20
2023-04-22T22:26:25.053Z,12.18
2023-04-22T22:29:28.594Z,12.16
2023-04-22T22:32:33.024Z,12.16
2023-04-22T22:35:38.117Z,12.15
2023-04-22T22:38:41.260Z,12.14
2023-04-22T22:41:44.523Z,12.14
2023-04-22T22:44:48.928Z,12.14
2023-04-22T22:47:53.723Z,12.12
2023-04-22T22:50:58.019Z,12.13
2023-04-22T22:54:01.660Z,12.15
2023-04-22T22:57:05.916Z,12.16
2023-04-22T23:00:12.131Z,12.16
2023-04-22T23:03:19.672Z,12.15
2023-04-22T23:06:23.620Z,12.13
2023-04-22T23:09:29.185Z,12.09
2023-04-22T23:12:32.386Z,12.06
2023-04-22T23:15:37.917Z,12.01
2023-04-22T23:18:41.382Z,11.98
2023-04-22T23:21:46.135Z,11.96
2023-04-22T23:24:49.981Z,11.92
2023-04-22T23:27:53.731Z,11.90
2023-04-22T23:30:58.792Z,11.88
2023-04-22T23:34:06.220Z,11.87
2023-04-22T23:37:13.760Z,11.86
2023-04-22T23:40:17.204Z,11.83
2023-04-22T23:43:20.505Z,11.81
2023-04-22T23:46:23.701Z,11.79
2023-04-22T23:49:26.904Z,11.77
2023-04-22T23:52:30.345Z,11.75
2023-04-22T23:55:35.739Z,11.71
2023-04-22T23:58:39.640Z,11.67
